sensor_id;sensor_type;location;lat;lon;timestamp;P1;durP1;ratioP1;P2;durP2;ratioP2
71763;SDS011;59602;52.142;5.408;2023-01-01T00:01:19;14.95;;;7.38;;
71763;SDS011;59602;52.142;5.408;2023-01-01T00:03:49;12.70;;;6.95;;
71763;SDS011;59602;52.142;5.408;2023-01-01T00:06:17;16.60;;;8.87;;
71763;SDS011;59602;52.142;5.408;2023-01-01T00:08:44;16.80;;;7.57;;
71763;SDS011;59602;52.142;5.408;2023-01-01T00:11:12;12.40;;;6.10;;
71763;SDS011;59602;52.142;5.408;2023-01-01T00:13:40;16.75;;;8.85;;
71763;SDS011;59602;52.142;5.408;2023-01-01T00:16:08;14.00;;;7.30;;
71763;SDS011;59602;52.142;5.408;2023-01-01T00:18:37;12.67;;;6.90;;
71763;SDS011;59602;52.142;5.408;2023-01-01T00:21:06;14.50;;;7.78;;
71763;SDS011;59602;52.142;5.408;2023-01-01T00:23:36;17.08;;;9.02;;
71763;SDS011;59602;52.142;5.408;2023-01-01T00:26:08;17.35;;;8.38;;
71763;SDS011;59602;52.142;5.408;2023-01-01T00:28:36;17.92;;;8.73;;
71763;SDS011;59602;52.142;5.408;2023-01-01T00:31:05;16.20;;;9.60;;
71763;SDS011;59602;52.142;5.408;2023-01-01T00:33:33;19.45;;;10.82;;
71763;SDS011;59602;52.142;5.408;2023-01-01T00:36:07;16.38;;;10.00;;
71763;SDS011;59602;52.142;5.408;2023-01-01T00:38:34;18.65;;;9.75;;
71763;SDS011;59602;52.142;5.408;2023-01-01T00:41:01;20.27;;;8.85;;
71763;SDS011;59602;52.142;5.408;2023-01-01T00:43:28;15.13;;;8.40;;
71763;SDS011;59602;52.142;5.408;2023-01-01T00:45:55;17.45;;;9.05;;
71763;SDS011;59602;52.142;5.408;2023-01-01T00:48:22;18.17;;;8.98;;
71763;SDS011;59602;52.142;5.408;2023-01-01T00:50:50;15.73;;;7.15;;
71763;SDS011;59602;52.142;5.408;2023-01-01T00:53:17;15.82;;;5.85;;
71763;SDS011;59602;52.142;5.408;2023-01-01T00:55:45;11.90;;;5.73;;
71763;SDS011;59602;52.142;5.408;2023-01-01T00:58:13;12.43;;;5.45;;
71763;SDS011;59602;52.142;5.408;2023-01-01T01:00:41;13.70;;;4.40;;
71763;SDS011;59602;52.142;5.408;2023-01-01T01:03:13;14.18;;;4.18;;
71763;SDS011;59602;52.142;5.408;2023-01-01T01:05:57;12.30;;;4.18;;
71763;SDS011;59602;52.142;5.408;2023-01-01T01:08:35;9.77;;;3.57;;
71763;SDS011;59602;52.142;5.408;2023-01-01T01:11:05;12.90;;;3.75;;
71763;SDS011;59602;52.142;5.408;2023-01-01T01:13:40;12.85;;;3.10;;
71763;SDS011;59602;52.142;5.408;2023-01-01T01:16:09;8.68;;;2.72;;
71763;SDS011;59602;52.142;5.408;2023-01-01T01:18:39;8.90;;;3.08;;
71763;SDS011;59602;52.142;5.408;2023-01-01T01:21:06;12.23;;;2.10;;
71763;SDS011;59602;52.142;5.408;2023-01-01T01:23:33;11.13;;;2.42;;
71763;SDS011;59602;52.142;5.408;2023-01-01T01:28:35;7.25;;;2.55;;
71763;SDS011;59602;52.142;5.408;2023-01-01T01:31:01;7.95;;;1.90;;
71763;SDS011;59602;52.142;5.408;2023-01-01T01:33:28;10.37;;;2.20;;
71763;SDS011;59602;52.142;5.408;2023-01-01T01:35:55;7.45;;;2.22;;
71763;SDS011;59602;52.142;5.408;2023-01-01T01:38:21;9.98;;;3.00;;
71763;SDS011;59602;52.142;5.408;2023-01-01T01:40:48;6.22;;;2.30;;
71763;SDS011;59602;52.142;5.408;2023-01-01T01:43:22;6.53;;;1.75;;
71763;SDS011;59602;52.142;5.408;2023-01-01T01:45:53;5.53;;;1.37;;
71763;SDS011;59602;52.142;5.408;2023-01-01T01:48:21;4.70;;;1.50;;
71763;SDS011;59602;52.142;5.408;2023-01-01T01:50:49;6.90;;;1.58;;
71763;SDS011;59602;52.142;5.408;2023-01-01T01:53:19;6.15;;;2.00;;
71763;SDS011;59602;52.142;5.408;2023-01-01T01:55:50;9.90;;;2.17;;
71763;SDS011;59602;52.142;5.408;2023-01-01T01:58:20;5.10;;;1.20;;
71763;SDS011;59602;52.142;5.408;2023-01-01T02:00:47;6.88;;;1.27;;
71763;SDS011;59602;52.142;5.408;2023-01-01T02:05:48;8.32;;;1.40;;
71763;SDS011;59602;52.142;5.408;2023-01-01T02:08:16;4.53;;;1.15;;
71763;SDS011;59602;52.142;5.408;2023-01-01T02:10:45;8.10;;;1.57;;
71763;SDS011;59602;52.142;5.408;2023-01-01T02:13:12;7.95;;;1.58;;
71763;SDS011;59602;52.142;5.408;2023-01-01T02:15:47;5.20;;;1.58;;
71763;SDS011;59602;52.142;5.408;2023-01-01T02:18:23;6.28;;;1.50;;
71763;SDS011;59602;52.142;5.408;2023-01-01T02:20:58;10.10;;;1.50;;
71763;SDS011;59602;52.142;5.408;2023-01-01T02:23:37;5.90;;;1.70;;
71763;SDS011;59602;52.142;5.408;2023-01-01T02:26:09;4.80;;;0.90;;
71763;SDS011;59602;52.142;5.408;2023-01-01T02:28:47;7.75;;;1.25;;
71763;SDS011;59602;52.142;5.408;2023-01-01T02:31:19;6.90;;;1.10;;
71763;SDS011;59602;52.142;5.408;2023-01-01T02:33:49;5.53;;;1.42;;
71763;SDS011;59602;52.142;5.408;2023-01-01T02:36:18;6.70;;;1.00;;
71763;SDS011;59602;52.142;5.408;2023-01-01T02:38:49;6.90;;;1.05;;
71763;SDS011;59602;52.142;5.408;2023-01-01T02:41:19;7.82;;;1.10;;
71763;SDS011;59602;52.142;5.408;2023-01-01T02:43:50;5.53;;;0.70;;
71763;SDS011;59602;52.142;5.408;2023-01-01T02:46:17;5.80;;;0.90;;
71763;SDS011;59602;52.142;5.408;2023-01-01T02:48:45;5.37;;;0.60;;
71763;SDS011;59602;52.142;5.408;2023-01-01T02:53:40;3.97;;;0.70;;
71763;SDS011;59602;52.142;5.408;2023-01-01T02:56:32;5.07;;;0.90;;
71763;SDS011;59602;52.142;5.408;2023-01-01T02:59:26;6.03;;;1.25;;
71763;SDS011;59602;52.142;5.408;2023-01-01T03:09:55;4.95;;;0.88;;
71763;SDS011;59602;52.142;5.408;2023-01-01T03:15:09;5.40;;;0.63;;
71763;SDS011;59602;52.142;5.408;2023-01-01T03:17:54;3.95;;;0.50;;
71763;SDS011;59602;52.142;5.408;2023-01-01T03:20:23;4.57;;;0.50;;
71763;SDS011;59602;52.142;5.408;2023-01-01T03:22:53;8.20;;;1.13;;
71763;SDS011;59602;52.142;5.408;2023-01-01T03:25:27;6.53;;;1.08;;
71763;SDS011;59602;52.142;5.408;2023-01-01T03:27:58;5.20;;;0.60;;
71763;SDS011;59602;52.142;5.408;2023-01-01T03:30:31;3.90;;;0.60;;
71763;SDS011;59602;52.142;5.408;2023-01-01T03:33:02;4.17;;;0.50;;
71763;SDS011;59602;52.142;5.408;2023-01-01T03:38:06;3.30;;;0.40;;
71763;SDS011;59602;52.142;5.408;2023-01-01T03:40:37;2.65;;;0.47;;
71763;SDS011;59602;52.142;5.408;2023-01-01T03:43:07;4.47;;;0.60;;
71763;SDS011;59602;52.142;5.408;2023-01-01T03:45:41;7.03;;;1.13;;
71763;SDS011;59602;52.142;5.408;2023-01-01T03:48:11;4.43;;;0.55;;
71763;SDS011;59602;52.142;5.408;2023-01-01T03:50:49;7.93;;;0.60;;
71763;SDS011;59602;52.142;5.408;2023-01-01T03:53:38;6.30;;;0.68;;
71763;SDS011;59602;52.142;5.408;2023-01-01T03:56:16;6.70;;;0.75;;
71763;SDS011;59602;52.142;5.408;2023-01-01T03:59:05;2.70;;;0.40;;
71763;SDS011;59602;52.142;5.408;2023-01-01T04:01:39;4.05;;;0.43;;
71763;SDS011;59602;52.142;5.408;2023-01-01T04:04:10;5.10;;;0.47;;
71763;SDS011;59602;52.142;5.408;2023-01-01T04:06:38;4.95;;;0.50;;
71763;SDS011;59602;52.142;5.408;2023-01-01T04:09:06;5.38;;;0.68;;
71763;SDS011;59602;52.142;5.408;2023-01-01T04:11:37;5.80;;;0.50;;
71763;SDS011;59602;52.142;5.408;2023-01-01T04:14:30;2.95;;;0.40;;
71763;SDS011;59602;52.142;5.408;2023-01-01T04:17:00;4.38;;;0.70;;
71763;SDS011;59602;52.142;5.408;2023-01-01T04:19:27;3.88;;;0.32;;
71763;SDS011;59602;52.142;5.408;2023-01-01T04:21:54;6.15;;;0.70;;
71763;SDS011;59602;52.142;5.408;2023-01-01T04:24:21;4.27;;;0.50;;
71763;SDS011;59602;52.142;5.408;2023-01-01T04:26:50;5.28;;;0.77;;
71763;SDS011;59602;52.142;5.408;2023-01-01T04:29:18;3.63;;;0.30;;
71763;SDS011;59602;52.142;5.408;2023-01-01T04:31:45;5.63;;;0.50;;
71763;SDS011;59602;52.142;5.408;2023-01-01T04:34:12;3.55;;;0.50;;
71763;SDS011;59602;52.142;5.408;2023-01-01T04:36:38;3.23;;;0.30;;
71763;SDS011;59602;52.142;5.408;2023-01-01T04:39:05;5.32;;;0.40;;
71763;SDS011;59602;52.142;5.408;2023-01-01T04:41:32;6.55;;;0.60;;
71763;SDS011;59602;52.142;5.408;2023-01-01T04:43:59;3.25;;;0.40;;
71763;SDS011;59602;52.142;5.408;2023-01-01T04:46:26;2.70;;;0.30;;
71763;SDS011;59602;52.142;5.408;2023-01-01T04:48:53;4.17;;;0.50;;
71763;SDS011;59602;52.142;5.408;2023-01-01T04:51:20;4.55;;;0.50;;
71763;SDS011;59602;52.142;5.408;2023-01-01T04:53:47;3.50;;;0.70;;
71763;SDS011;59602;52.142;5.408;2023-01-01T04:56:15;6.03;;;0.63;;
71763;SDS011;59602;52.142;5.408;2023-01-01T04:58:44;4.82;;;0.63;;
71763;SDS011;59602;52.142;5.408;2023-01-01T05:01:16;2.83;;;0.43;;
71763;SDS011;59602;52.142;5.408;2023-01-01T05:03:46;3.85;;;0.50;;
71763;SDS011;59602;52.142;5.408;2023-01-01T05:06:14;4.80;;;0.70;;
71763;SDS011;59602;52.142;5.408;2023-01-01T05:08:42;2.95;;;0.40;;
71763;SDS011;59602;52.142;5.408;2023-01-01T05:11:12;5.03;;;0.50;;
71763;SDS011;59602;52.142;5.408;2023-01-01T05:13:41;3.63;;;0.30;;
71763;SDS011;59602;52.142;5.408;2023-01-01T05:16:11;4.80;;;0.38;;
71763;SDS011;59602;52.142;5.408;2023-01-01T05:18:39;3.25;;;0.45;;
71763;SDS011;59602;52.142;5.408;2023-01-01T05:21:07;3.95;;;0.35;;
71763;SDS011;59602;52.142;5.408;2023-01-01T05:23:37;5.95;;;0.85;;
71763;SDS011;59602;52.142;5.408;2023-01-01T05:26:09;3.47;;;0.23;;
71763;SDS011;59602;52.142;5.408;2023-01-01T05:28:37;2.85;;;0.50;;
71763;SDS011;59602;52.142;5.408;2023-01-01T05:31:04;4.50;;;0.40;;
71763;SDS011;59602;52.142;5.408;2023-01-01T05:33:33;4.88;;;0.38;;
71763;SDS011;59602;52.142;5.408;2023-01-01T05:36:00;3.13;;;0.30;;
71763;SDS011;59602;52.142;5.408;2023-01-01T05:38:28;5.17;;;0.30;;
71763;SDS011;59602;52.142;5.408;2023-01-01T05:40:55;4.30;;;0.40;;
71763;SDS011;59602;52.142;5.408;2023-01-01T05:43:22;4.13;;;0.70;;
71763;SDS011;59602;52.142;5.408;2023-01-01T05:45:48;4.63;;;0.30;;
71763;SDS011;59602;52.142;5.408;2023-01-01T05:48:15;3.42;;;0.57;;
71763;SDS011;59602;52.142;5.408;2023-01-01T05:50:41;4.27;;;0.80;;
71763;SDS011;59602;52.142;5.408;2023-01-01T05:53:08;3.67;;;0.35;;
71763;SDS011;59602;52.142;5.408;2023-01-01T05:55:35;4.28;;;0.28;;
71763;SDS011;59602;52.142;5.408;2023-01-01T05:58:01;5.55;;;0.43;;
71763;SDS011;59602;52.142;5.408;2023-01-01T06:00:28;4.30;;;0.20;;
71763;SDS011;59602;52.142;5.408;2023-01-01T06:02:54;3.10;;;0.20;;
71763;SDS011;59602;52.142;5.408;2023-01-01T06:05:21;2.67;;;0.50;;
71763;SDS011;59602;52.142;5.408;2023-01-01T06:07:48;4.53;;;0.43;;
71763;SDS011;59602;52.142;5.408;2023-01-01T06:10:14;3.95;;;0.20;;
71763;SDS011;59602;52.142;5.408;2023-01-01T06:12:41;3.03;;;0.20;;
71763;SDS011;59602;52.142;5.408;2023-01-01T06:15:07;2.30;;;0.20;;
71763;SDS011;59602;52.142;5.408;2023-01-01T06:17:34;3.25;;;0.10;;
71763;SDS011;59602;52.142;5.408;2023-01-01T06:20:01;5.18;;;0.43;;
71763;SDS011;59602;52.142;5.408;2023-01-01T06:22:27;6.53;;;0.30;;
71763;SDS011;59602;52.142;5.408;2023-01-01T06:24:54;4.68;;;0.20;;
71763;SDS011;59602;52.142;5.408;2023-01-01T06:27:21;5.70;;;0.17;;
71763;SDS011;59602;52.142;5.408;2023-01-01T06:29:47;4.07;;;0.22;;
71763;SDS011;59602;52.142;5.408;2023-01-01T06:32:14;1.77;;;0.22;;
71763;SDS011;59602;52.142;5.408;2023-01-01T06:34:40;5.82;;;0.20;;
71763;SDS011;59602;52.142;5.408;2023-01-01T06:37:07;2.15;;;0.20;;
71763;SDS011;59602;52.142;5.408;2023-01-01T06:39:33;1.60;;;0.20;;
71763;SDS011;59602;52.142;5.408;2023-01-01T06:42:00;3.80;;;0.20;;
71763;SDS011;59602;52.142;5.408;2023-01-01T06:44:27;3.97;;;0.20;;
71763;SDS011;59602;52.142;5.408;2023-01-01T06:46:53;3.25;;;0.40;;
71763;SDS011;59602;52.142;5.408;2023-01-01T06:49:20;3.75;;;0.40;;
71763;SDS011;59602;52.142;5.408;2023-01-01T06:51:46;4.30;;;0.23;;
71763;SDS011;59602;52.142;5.408;2023-01-01T06:54:13;2.75;;;0.10;;
71763;SDS011;59602;52.142;5.408;2023-01-01T06:56:39;2.13;;;0.10;;
71763;SDS011;59602;52.142;5.408;2023-01-01T06:59:06;3.40;;;0.30;;
71763;SDS011;59602;52.142;5.408;2023-01-01T07:01:33;2.22;;;0.10;;
71763;SDS011;59602;52.142;5.408;2023-01-01T07:04:02;4.23;;;0.20;;
71763;SDS011;59602;52.142;5.408;2023-01-01T07:06:31;2.70;;;0.10;;
71763;SDS011;59602;52.142;5.408;2023-01-01T07:08:58;3.92;;;0.20;;
71763;SDS011;59602;52.142;5.408;2023-01-01T07:11:25;2.13;;;0.20;;
71763;SDS011;59602;52.142;5.408;2023-01-01T07:13:53;3.10;;;0.10;;
71763;SDS011;59602;52.142;5.408;2023-01-01T07:16:20;3.20;;;0.20;;
71763;SDS011;59602;52.142;5.408;2023-01-01T07:18:47;1.50;;;0.22;;
71763;SDS011;59602;52.142;5.408;2023-01-01T07:23:58;1.05;;;0.10;;
71763;SDS011;59602;52.142;5.408;2023-01-01T07:26:26;1.63;;;0.10;;
71763;SDS011;59602;52.142;5.408;2023-01-01T07:28:54;3.40;;;0.30;;
71763;SDS011;59602;52.142;5.408;2023-01-01T07:31:29;3.10;;;0.20;;
71763;SDS011;59602;52.142;5.408;2023-01-01T07:33:56;2.75;;;0.20;;
71763;SDS011;59602;52.142;5.408;2023-01-01T07:36:22;4.10;;;0.10;;
71763;SDS011;59602;52.142;5.408;2023-01-01T07:38:49;2.80;;;0.20;;
71763;SDS011;59602;52.142;5.408;2023-01-01T07:41:17;5.33;;;0.20;;
71763;SDS011;59602;52.142;5.408;2023-01-01T07:43:44;1.27;;;0.10;;
71763;SDS011;59602;52.142;5.408;2023-01-01T07:46:11;3.42;;;0.20;;
71763;SDS011;59602;52.142;5.408;2023-01-01T07:48:39;3.20;;;0.10;;
71763;SDS011;59602;52.142;5.408;2023-01-01T07:51:05;9.52;;;0.70;;
71763;SDS011;59602;52.142;5.408;2023-01-01T07:53:32;2.33;;;0.10;;
71763;SDS011;59602;52.142;5.408;2023-01-01T07:55:58;3.08;;;0.10;;
71763;SDS011;59602;52.142;5.408;2023-01-01T07:58:25;3.47;;;0.15;;
71763;SDS011;59602;52.142;5.408;2023-01-01T08:00:52;2.70;;;0.10;;
71763;SDS011;59602;52.142;5.408;2023-01-01T08:03:18;1.80;;;0.10;;
71763;SDS011;59602;52.142;5.408;2023-01-01T08:05:45;5.70;;;0.27;;
71763;SDS011;59602;52.142;5.408;2023-01-01T08:08:12;1.70;;;0.20;;
71763;SDS011;59602;52.142;5.408;2023-01-01T08:10:38;4.65;;;0.13;;
71763;SDS011;59602;52.142;5.408;2023-01-01T08:13:06;4.22;;;0.20;;
71763;SDS011;59602;52.142;5.408;2023-01-01T08:15:34;4.10;;;0.17;;
71763;SDS011;59602;52.142;5.408;2023-01-01T08:18:01;6.23;;;0.10;;
71763;SDS011;59602;52.142;5.408;2023-01-01T08:20:30;2.38;;;0.10;;
71763;SDS011;59602;52.142;5.408;2023-01-01T08:22:58;3.25;;;0.10;;
71763;SDS011;59602;52.142;5.408;2023-01-01T08:25:32;1.65;;;0.10;;
71763;SDS011;59602;52.142;5.408;2023-01-01T08:27:59;3.35;;;0.10;;
71763;SDS011;59602;52.142;5.408;2023-01-01T08:30:25;2.37;;;0.33;;
71763;SDS011;59602;52.142;5.408;2023-01-01T08:32:52;3.75;;;0.10;;
71763;SDS011;59602;52.142;5.408;2023-01-01T08:35:20;4.03;;;0.10;;
71763;SDS011;59602;52.142;5.408;2023-01-01T08:37:46;1.70;;;0.08;;
71763;SDS011;59602;52.142;5.408;2023-01-01T08:40:13;5.80;;;0.15;;
71763;SDS011;59602;52.142;5.408;2023-01-01T08:42:41;5.00;;;0.30;;
71763;SDS011;59602;52.142;5.408;2023-01-01T08:45:07;6.43;;;0.20;;
71763;SDS011;59602;52.142;5.408;2023-01-01T08:47:34;6.00;;;0.10;;
71763;SDS011;59602;52.142;5.408;2023-01-01T08:50:03;2.83;;;0.15;;
71763;SDS011;59602;52.142;5.408;2023-01-01T08:52:30;3.25;;;0.20;;
71763;SDS011;59602;52.142;5.408;2023-01-01T08:54:57;2.90;;;0.17;;
71763;SDS011;59602;52.142;5.408;2023-01-01T08:57:24;4.32;;;0.20;;
71763;SDS011;59602;52.142;5.408;2023-01-01T08:59:52;4.05;;;0.57;;
71763;SDS011;59602;52.142;5.408;2023-01-01T09:02:18;3.03;;;0.13;;
71763;SDS011;59602;52.142;5.408;2023-01-01T09:04:45;3.08;;;0.30;;
71763;SDS011;59602;52.142;5.408;2023-01-01T09:07:12;4.20;;;0.10;;
71763;SDS011;59602;52.142;5.408;2023-01-01T09:09:38;5.85;;;0.17;;
71763;SDS011;59602;52.142;5.408;2023-01-01T09:12:05;2.60;;;0.20;;
71763;SDS011;59602;52.142;5.408;2023-01-01T09:14:34;3.58;;;0.20;;
71763;SDS011;59602;52.142;5.408;2023-01-01T09:17:01;3.28;;;0.17;;
71763;SDS011;59602;52.142;5.408;2023-01-01T09:19:28;3.17;;;0.20;;
71763;SDS011;59602;52.142;5.408;2023-01-01T09:21:55;4.63;;;0.20;;
71763;SDS011;59602;52.142;5.408;2023-01-01T09:24:22;5.95;;;0.17;;
71763;SDS011;59602;52.142;5.408;2023-01-01T09:26:49;4.25;;;0.30;;
71763;SDS011;59602;52.142;5.408;2023-01-01T09:29:16;5.47;;;0.25;;
71763;SDS011;59602;52.142;5.408;2023-01-01T09:31:44;3.03;;;0.10;;
71763;SDS011;59602;52.142;5.408;2023-01-01T09:34:11;3.28;;;0.25;;
71763;SDS011;59602;52.142;5.408;2023-01-01T09:36:37;6.72;;;0.40;;
71763;SDS011;59602;52.142;5.408;2023-01-01T09:39:04;2.67;;;0.20;;
71763;SDS011;59602;52.142;5.408;2023-01-01T09:41:36;5.15;;;0.30;;
71763;SDS011;59602;52.142;5.408;2023-01-01T09:46:47;3.30;;;0.10;;
71763;SDS011;59602;52.142;5.408;2023-01-01T09:49:16;8.43;;;0.40;;
71763;SDS011;59602;52.142;5.408;2023-01-01T09:51:51;4.35;;;0.20;;
71763;SDS011;59602;52.142;5.408;2023-01-01T09:54:25;4.28;;;0.20;;
71763;SDS011;59602;52.142;5.408;2023-01-01T09:56:56;3.47;;;0.20;;
71763;SDS011;59602;52.142;5.408;2023-01-01T09:59:25;3.65;;;0.20;;
71763;SDS011;59602;52.142;5.408;2023-01-01T10:04:28;6.07;;;0.43;;
71763;SDS011;59602;52.142;5.408;2023-01-01T10:09:49;2.40;;;0.10;;
71763;SDS011;59602;52.142;5.408;2023-01-01T10:15:16;5.38;;;0.20;;
71763;SDS011;59602;52.142;5.408;2023-01-01T10:17:56;5.40;;;0.17;;
71763;SDS011;59602;52.142;5.408;2023-01-01T10:20:27;3.15;;;0.20;;
71763;SDS011;59602;52.142;5.408;2023-01-01T10:23:06;5.10;;;0.30;;
71763;SDS011;59602;52.142;5.408;2023-01-01T10:25:42;3.83;;;0.17;;
71763;SDS011;59602;52.142;5.408;2023-01-01T10:28:23;4.43;;;0.30;;
71763;SDS011;59602;52.142;5.408;2023-01-01T10:31:14;4.63;;;0.15;;
71763;SDS011;59602;52.142;5.408;2023-01-01T10:33:44;4.47;;;0.20;;
71763;SDS011;59602;52.142;5.408;2023-01-01T10:36:13;5.07;;;0.30;;
71763;SDS011;59602;52.142;5.408;2023-01-01T10:38:43;3.10;;;0.10;;
71763;SDS011;59602;52.142;5.408;2023-01-01T10:41:16;7.55;;;0.40;;
71763;SDS011;59602;52.142;5.408;2023-01-01T10:43:45;4.72;;;0.30;;
71763;SDS011;59602;52.142;5.408;2023-01-01T10:46:14;5.72;;;0.40;;
71763;SDS011;59602;52.142;5.408;2023-01-01T10:49:07;6.50;;;0.30;;
71763;SDS011;59602;52.142;5.408;2023-01-01T10:51:40;5.72;;;0.20;;
71763;SDS011;59602;52.142;5.408;2023-01-01T10:54:31;4.45;;;0.28;;
71763;SDS011;59602;52.142;5.408;2023-01-01T10:57:15;5.55;;;0.30;;
71763;SDS011;59602;52.142;5.408;2023-01-01T10:59:54;4.85;;;0.40;;
71763;SDS011;59602;52.142;5.408;2023-01-01T11:02:36;4.03;;;0.30;;
71763;SDS011;59602;52.142;5.408;2023-01-01T11:05:17;7.32;;;0.28;;
71763;SDS011;59602;52.142;5.408;2023-01-01T11:07:47;6.22;;;0.57;;
71763;SDS011;59602;52.142;5.408;2023-01-01T11:12:45;6.68;;;0.43;;
71763;SDS011;59602;52.142;5.408;2023-01-01T11:15:35;3.90;;;0.20;;
71763;SDS011;59602;52.142;5.408;2023-01-01T11:18:04;5.93;;;0.50;;
71763;SDS011;59602;52.142;5.408;2023-01-01T11:20:37;8.00;;;0.35;;
71763;SDS011;59602;52.142;5.408;2023-01-01T11:25:57;3.85;;;0.30;;
71763;SDS011;59602;52.142;5.408;2023-01-01T11:28:26;4.63;;;0.27;;
71763;SDS011;59602;52.142;5.408;2023-01-01T11:30:57;5.10;;;0.40;;
71763;SDS011;59602;52.142;5.408;2023-01-01T11:33:25;3.38;;;0.20;;
71763;SDS011;59602;52.142;5.408;2023-01-01T11:35:54;4.95;;;0.40;;
71763;SDS011;59602;52.142;5.408;2023-01-01T11:38:23;1.70;;;0.30;;
71763;SDS011;59602;52.142;5.408;2023-01-01T11:40:55;4.83;;;0.30;;
71763;SDS011;59602;52.142;5.408;2023-01-01T11:43:28;6.88;;;0.45;;
71763;SDS011;59602;52.142;5.408;2023-01-01T11:46:08;6.05;;;0.50;;
71763;SDS011;59602;52.142;5.408;2023-01-01T11:48:40;3.70;;;0.60;;
71763;SDS011;59602;52.142;5.408;2023-01-01T11:51:10;4.15;;;0.60;;
71763;SDS011;59602;52.142;5.408;2023-01-01T11:53:52;2.90;;;0.37;;
71763;SDS011;59602;52.142;5.408;2023-01-01T11:56:35;3.70;;;0.30;;
71763;SDS011;59602;52.142;5.408;2023-01-01T11:59:03;4.15;;;0.40;;
71763;SDS011;59602;52.142;5.408;2023-01-01T12:01:46;7.10;;;0.35;;
71763;SDS011;59602;52.142;5.408;2023-01-01T12:04:19;2.80;;;0.43;;
71763;SDS011;59602;52.142;5.408;2023-01-01T12:09:28;3.33;;;0.40;;
71763;SDS011;59602;52.142;5.408;2023-01-01T12:12:04;4.88;;;0.73;;
71763;SDS011;59602;52.142;5.408;2023-01-01T12:17:10;7.35;;;0.60;;
71763;SDS011;59602;52.142;5.408;2023-01-01T12:22:14;5.68;;;0.60;;
71763;SDS011;59602;52.142;5.408;2023-01-01T12:24:42;8.57;;;0.90;;
71763;SDS011;59602;52.142;5.408;2023-01-01T12:27:24;6.22;;;0.40;;
71763;SDS011;59602;52.142;5.408;2023-01-01T12:30:18;3.78;;;0.45;;
71763;SDS011;59602;52.142;5.408;2023-01-01T12:35:47;7.63;;;0.73;;
71763;SDS011;59602;52.142;5.408;2023-01-01T12:41:03;8.88;;;0.93;;
71763;SDS011;59602;52.142;5.408;2023-01-01T12:43:42;9.50;;;1.13;;
71763;SDS011;59602;52.142;5.408;2023-01-01T12:46:25;8.17;;;1.20;;
71763;SDS011;59602;52.142;5.408;2023-01-01T12:49:14;4.68;;;0.75;;
71763;SDS011;59602;52.142;5.408;2023-01-01T12:51:56;3.90;;;0.50;;
71763;SDS011;59602;52.142;5.408;2023-01-01T13:00:11;4.90;;;0.50;;
71763;SDS011;59602;52.142;5.408;2023-01-01T13:02:42;5.38;;;0.63;;
71763;SDS011;59602;52.142;5.408;2023-01-01T13:05:17;5.00;;;0.50;;
71763;SDS011;59602;52.142;5.408;2023-01-01T13:07:49;8.57;;;0.47;;
71763;SDS011;59602;52.142;5.408;2023-01-01T13:10:23;6.07;;;0.88;;
71763;SDS011;59602;52.142;5.408;2023-01-01T13:12:59;6.57;;;0.70;;
71763;SDS011;59602;52.142;5.408;2023-01-01T13:15:44;8.48;;;0.52;;
71763;SDS011;59602;52.142;5.408;2023-01-01T13:18:22;6.65;;;0.47;;
71763;SDS011;59602;52.142;5.408;2023-01-01T13:39:51;4.93;;;0.30;;
71763;SDS011;59602;52.142;5.408;2023-01-01T13:45:15;7.50;;;0.30;;
71763;SDS011;59602;52.142;5.408;2023-01-01T13:48:11;6.85;;;0.40;;
71763;SDS011;59602;52.142;5.408;2023-01-01T13:53:23;10.67;;;0.87;;
71763;SDS011;59602;52.142;5.408;2023-01-01T13:56:05;9.50;;;0.50;;
71763;SDS011;59602;52.142;5.408;2023-01-01T13:58:43;6.32;;;0.40;;
71763;SDS011;59602;52.142;5.408;2023-01-01T14:01:23;7.07;;;0.55;;
71763;SDS011;59602;52.142;5.408;2023-01-01T14:04:03;7.00;;;0.52;;
71763;SDS011;59602;52.142;5.408;2023-01-01T14:06:39;7.63;;;0.50;;
71763;SDS011;59602;52.142;5.408;2023-01-01T14:09:11;6.22;;;0.40;;
71763;SDS011;59602;52.142;5.408;2023-01-01T14:11:39;5.10;;;0.30;;
71763;SDS011;59602;52.142;5.408;2023-01-01T14:16:51;10.48;;;0.63;;
71763;SDS011;59602;52.142;5.408;2023-01-01T14:19:20;5.90;;;0.40;;
71763;SDS011;59602;52.142;5.408;2023-01-01T14:21:49;7.63;;;0.40;;
71763;SDS011;59602;52.142;5.408;2023-01-01T14:24:17;7.10;;;0.80;;
71763;SDS011;59602;52.142;5.408;2023-01-01T14:26:46;6.93;;;0.70;;
71763;SDS011;59602;52.142;5.408;2023-01-01T14:32:33;9.30;;;0.93;;
71763;SDS011;59602;52.142;5.408;2023-01-01T14:35:02;8.77;;;1.10;;
71763;SDS011;59602;52.142;5.408;2023-01-01T14:37:29;7.20;;;1.27;;
71763;SDS011;59602;52.142;5.408;2023-01-01T14:40:07;7.00;;;1.17;;
71763;SDS011;59602;52.142;5.408;2023-01-01T14:42:41;7.97;;;0.70;;
71763;SDS011;59602;52.142;5.408;2023-01-01T14:45:22;12.43;;;2.00;;
71763;SDS011;59602;52.142;5.408;2023-01-01T14:51:58;8.55;;;1.23;;
71763;SDS011;59602;52.142;5.408;2023-01-01T14:54:30;8.63;;;0.70;;
71763;SDS011;59602;52.142;5.408;2023-01-01T14:57:08;6.25;;;0.70;;
71763;SDS011;59602;52.142;5.408;2023-01-01T14:59:36;12.67;;;0.73;;
71763;SDS011;59602;52.142;5.408;2023-01-01T15:02:15;4.90;;;0.70;;
71763;SDS011;59602;52.142;5.408;2023-01-01T15:04:43;5.15;;;0.60;;
71763;SDS011;59602;52.142;5.408;2023-01-01T15:07:20;6.55;;;0.47;;
71763;SDS011;59602;52.142;5.408;2023-01-01T15:09:55;5.32;;;0.40;;
71763;SDS011;59602;52.142;5.408;2023-01-01T15:12:25;6.87;;;0.40;;
71763;SDS011;59602;52.142;5.408;2023-01-01T15:14:53;5.22;;;0.40;;
71763;SDS011;59602;52.142;5.408;2023-01-01T15:17:23;6.82;;;0.50;;
71763;SDS011;59602;52.142;5.408;2023-01-01T15:20:00;4.22;;;0.43;;
71763;SDS011;59602;52.142;5.408;2023-01-01T15:22:46;5.40;;;0.40;;
71763;SDS011;59602;52.142;5.408;2023-01-01T15:25:15;3.80;;;0.60;;
71763;SDS011;59602;52.142;5.408;2023-01-01T15:27:47;10.00;;;0.70;;
71763;SDS011;59602;52.142;5.408;2023-01-01T15:30:21;6.90;;;0.73;;
71763;SDS011;59602;52.142;5.408;2023-01-01T15:32:50;6.68;;;0.63;;
71763;SDS011;59602;52.142;5.408;2023-01-01T15:35:19;4.13;;;0.70;;
71763;SDS011;59602;52.142;5.408;2023-01-01T15:37:58;5.73;;;0.60;;
71763;SDS011;59602;52.142;5.408;2023-01-01T15:40:29;5.88;;;0.70;;
71763;SDS011;59602;52.142;5.408;2023-01-01T15:45:27;8.90;;;1.00;;
71763;SDS011;59602;52.142;5.408;2023-01-01T15:47:55;6.40;;;1.15;;
71763;SDS011;59602;52.142;5.408;2023-01-01T15:50:37;8.90;;;0.80;;
71763;SDS011;59602;52.142;5.408;2023-01-01T15:53:10;8.45;;;0.80;;
71763;SDS011;59602;52.142;5.408;2023-01-01T15:59:19;8.30;;;0.70;;
71763;SDS011;59602;52.142;5.408;2023-01-01T16:02:20;8.25;;;1.10;;
71763;SDS011;59602;52.142;5.408;2023-01-01T16:04:55;7.83;;;1.13;;
71763;SDS011;59602;52.142;5.408;2023-01-01T16:07:22;4.57;;;0.80;;
71763;SDS011;59602;52.142;5.408;2023-01-01T16:09:51;8.95;;;1.30;;
71763;SDS011;59602;52.142;5.408;2023-01-01T16:12:23;8.50;;;1.75;;
71763;SDS011;59602;52.142;5.408;2023-01-01T16:14:50;9.40;;;1.60;;
71763;SDS011;59602;52.142;5.408;2023-01-01T16:17:18;9.30;;;1.57;;
71763;SDS011;59602;52.142;5.408;2023-01-01T16:19:46;6.82;;;1.38;;
71763;SDS011;59602;52.142;5.408;2023-01-01T16:22:14;10.05;;;1.45;;
71763;SDS011;59602;52.142;5.408;2023-01-01T16:24:42;7.40;;;1.70;;
71763;SDS011;59602;52.142;5.408;2023-01-01T16:27:10;10.52;;;1.88;;
71763;SDS011;59602;52.142;5.408;2023-01-01T16:29:38;7.13;;;1.10;;
71763;SDS011;59602;52.142;5.408;2023-01-01T16:32:13;10.32;;;1.30;;
71763;SDS011;59602;52.142;5.408;2023-01-01T16:34:43;10.00;;;1.38;;
71763;SDS011;59602;52.142;5.408;2023-01-01T16:37:09;10.50;;;1.50;;
71763;SDS011;59602;52.142;5.408;2023-01-01T16:39:36;12.27;;;2.20;;
71763;SDS011;59602;52.142;5.408;2023-01-01T16:42:03;8.67;;;3.60;;
71763;SDS011;59602;52.142;5.408;2023-01-01T16:44:29;11.52;;;2.70;;
71763;SDS011;59602;52.142;5.408;2023-01-01T16:46:56;10.80;;;2.92;;